createdAt,value
2018-09-19T00:00:53.373Z,99.90
2018-09-19T00:01:57.835Z,99.90
2018-09-19T00:03:02.747Z,99.90
2018-09-19T00:04:07.160Z,99.90
2018-09-19T00:05:11.517Z,99.90
2018-09-19T00:06:15.718Z,99.90
2018-09-19T00:07:19.864Z,99.90
2018-09-19T00:08:24.261Z,99.90
2018-09-19T00:09:28.557Z,99.90
2018-09-19T00:10:32.814Z,99.90
2018-09-19T00:11:36.967Z,99.90
2018-09-19T00:12:41.203Z,99.90
2018-09-19T00:13:45.565Z,99.90
2018-09-19T00:14:49.946Z,99.90
2018-09-19T00:15:54.163Z,99.90
2018-09-19T00:16:58.274Z,99.90
2018-09-19T00:18:02.550Z,99.90
2018-09-19T00:19:06.911Z,99.90
2018-09-19T00:20:11.479Z,99.90
2018-09-19T00:21:15.662Z,99.90
2018-09-19T00:22:20.191Z,99.90
2018-09-19T00:23:24.367Z,99.90
2018-09-19T00:24:28.790Z,99.90
2018-09-19T00:25:33.170Z,99.90
2018-09-19T00:26:37.458Z,99.90
2018-09-19T00:27:41.700Z,99.90
2018-09-19T00:28:45.982Z,99.90
2018-09-19T00:29:50.198Z,99.90
2018-09-19T00:30:54.499Z,99.90
2018-09-19T00:31:58.899Z,99.90
2018-09-19T00:33:03.760Z,99.90
2018-09-19T00:34:08.012Z,99.90
2018-09-19T00:35:12.416Z,99.90
2018-09-19T00:36:16.767Z,99.90
2018-09-19T00:37:20.857Z,99.90
2018-09-19T00:38:25.228Z,99.90
2018-09-19T00:39:29.481Z,99.90
2018-09-19T00:40:33.726Z,99.90
2018-09-19T00:41:38.097Z,99.90
2018-09-19T00:42:42.591Z,99.90
2018-09-19T00:43:47.067Z,99.90
2018-09-19T00:44:51.549Z,99.90
2018-09-19T00:45:55.687Z,99.90
2018-09-19T00:46:59.925Z,99.90
2018-09-19T00:48:04.260Z,99.90
2018-09-19T00:49:08.538Z,99.90
2018-09-19T00:50:12.916Z,99.90
2018-09-19T00:51:17.119Z,99.90
2018-09-19T00:52:21.425Z,99.90
2018-09-19T00:53:25.879Z,99.90
2018-09-19T00:54:30.144Z,99.90
2018-09-19T00:55:34.377Z,99.90
2018-09-19T00:56:38.524Z,99.90
2018-09-19T00:57:42.706Z,99.90
2018-09-19T00:58:47.179Z,99.90
2018-09-19T00:59:51.582Z,99.90
2018-09-19T01:00:56.164Z,99.90
2018-09-19T01:02:00.401Z,99.90
2018-09-19T01:03:05.069Z,99.90
2018-09-19T01:04:09.442Z,99.90
2018-09-19T01:05:13.751Z,99.90
2018-09-19T01:06:18.008Z,99.90
2018-09-19T01:07:22.203Z,99.90
2018-09-19T01:08:26.514Z,99.90
2018-09-19T01:09:30.751Z,99.90
2018-09-19T01:10:34.981Z,99.90
2018-09-19T01:11:39.844Z,99.90
2018-09-19T01:12:44.229Z,99.90
2018-09-19T01:13:48.311Z,99.90
2018-09-19T01:14:52.581Z,99.90
2018-09-19T01:15:56.749Z,99.90
2018-09-19T01:17:01.339Z,99.90
2018-09-19T01:18:05.549Z,99.90
2018-09-19T01:19:09.835Z,99.90
2018-09-19T01:20:14.134Z,99.90
2018-09-19T01:21:18.396Z,99.90
2018-09-19T01:22:22.716Z,99.90
2018-09-19T01:23:26.860Z,99.90
2018-09-19T01:24:31.309Z,99.90
2018-09-19T01:25:35.648Z,99.90
2018-09-19T01:26:40.005Z,99.90
2018-09-19T01:27:44.615Z,99.90
2018-09-19T01:28:49.276Z,99.90
2018-09-19T01:29:53.806Z,99.90
2018-09-19T01:30:58.070Z,99.90
2018-09-19T01:32:02.243Z,99.90
2018-09-19T01:33:06.429Z,99.90
2018-09-19T01:34:10.537Z,99.90
2018-09-19T01:35:14.752Z,99.90
2018-09-19T01:36:18.964Z,99.90
2018-09-19T01:37:23.198Z,99.90
2018-09-19T01:38:27.445Z,99.90
2018-09-19T01:39:31.601Z,99.90
2018-09-19T01:40:36.019Z,99.90
2018-09-19T01:41:40.130Z,99.90
2018-09-19T01:42:44.178Z,99.90
2018-09-19T01:43:48.481Z,99.90
2018-09-19T01:44:52.991Z,99.90
2018-09-19T01:45:57.397Z,99.90
2018-09-19T01:47:01.514Z,99.90
2018-09-19T01:48:05.676Z,99.90
2018-09-19T01:49:09.957Z,99.90
2018-09-19T01:50:14.245Z,99.90
2018-09-19T01:51:18.530Z,99.90
2018-09-19T01:52:22.864Z,99.90
2018-09-19T01:53:27.450Z,99.90
2018-09-19T01:54:31.700Z,99.90
2018-09-19T01:55:36.166Z,99.90
2018-09-19T01:56:40.503Z,99.90
2018-09-19T01:57:44.739Z,99.90
2018-09-19T01:58:49.139Z,99.90
2018-09-19T01:59:53.806Z,99.90
2018-09-19T02:00:58.105Z,99.90
2018-09-19T02:02:02.365Z,99.90
2018-09-19T02:03:06.633Z,99.90
2018-09-19T02:04:10.942Z,99.90
2018-09-19T02:05:15.130Z,99.90
2018-09-19T02:06:19.334Z,99.90
2018-09-19T02:07:23.640Z,99.90
2018-09-19T02:08:27.804Z,99.90
2018-09-19T02:09:32.187Z,99.90
2018-09-19T02:10:36.378Z,99.90
2018-09-19T02:11:41.183Z,99.90
2018-09-19T02:12:45.573Z,99.90
2018-09-19T02:13:49.707Z,99.90
2018-09-19T02:14:54.013Z,99.90
2018-09-19T02:15:58.369Z,99.90
2018-09-19T02:17:02.651Z,99.90
2018-09-19T02:18:07.144Z,99.90
2018-09-19T02:19:11.474Z,99.90
2018-09-19T02:20:15.812Z,99.90
2018-09-19T02:21:19.972Z,99.90
2018-09-19T02:22:24.354Z,99.90
2018-09-19T02:23:28.583Z,99.90
2018-09-19T02:24:32.862Z,99.90
2018-09-19T02:25:37.172Z,99.90
2018-09-19T02:26:41.636Z,99.90
2018-09-19T02:27:45.802Z,99.90
2018-09-19T02:28:50.180Z,99.90
2018-09-19T02:29:54.533Z,99.90
2018-09-19T02:30:58.605Z,99.90
2018-09-19T02:32:02.871Z,99.90
2018-09-19T02:33:07.265Z,99.90
2018-09-19T02:34:11.551Z,99.90
2018-09-19T02:35:15.949Z,99.90
2018-09-19T02:36:24.277Z,99.90
2018-09-19T02:37:28.643Z,99.90
2018-09-19T02:38:32.816Z,99.90
2018-09-19T02:39:36.968Z,99.90
2018-09-19T02:40:41.136Z,99.90
2018-09-19T02:41:45.313Z,99.90
2018-09-19T02:42:49.654Z,99.90
2018-09-19T02:43:56.739Z,99.90
2018-09-19T02:45:01.121Z,99.90
2018-09-19T02:46:05.466Z,99.90
2018-09-19T02:47:09.632Z,99.90
2018-09-19T02:48:13.779Z,99.90
2018-09-19T02:49:18.000Z,99.90
2018-09-19T02:50:22.080Z,99.90
2018-09-19T02:51:26.140Z,99.90
2018-09-19T02:52:30.273Z,99.90
2018-09-19T02:53:34.588Z,99.90
2018-09-19T02:54:39.091Z,99.90
2018-09-19T02:55:43.294Z,99.90
2018-09-19T02:56:47.554Z,99.90
2018-09-19T02:57:52.016Z,99.90
2018-09-19T02:58:56.268Z,99.90
2018-09-19T03:00:00.537Z,99.90
2018-09-19T03:01:05.096Z,99.90
2018-09-19T03:02:09.552Z,99.90
2018-09-19T03:03:13.836Z,99.90
2018-09-19T03:04:18.151Z,99.90
2018-09-19T03:05:22.489Z,99.90
2018-09-19T03:06:26.810Z,99.90
2018-09-19T03:07:31.355Z,99.90
2018-09-19T03:08:35.584Z,99.90
2018-09-19T03:09:40.016Z,99.90
2018-09-19T03:10:44.499Z,99.90
2018-09-19T03:11:48.905Z,99.90
2018-09-19T03:12:53.099Z,99.90
2018-09-19T03:13:57.257Z,99.90
2018-09-19T03:15:02.522Z,99.90
2018-09-19T03:16:06.653Z,99.90
2018-09-19T03:17:10.993Z,99.90
2018-09-19T03:18:15.439Z,99.90
2018-09-19T03:19:19.849Z,99.90
2018-09-19T03:20:24.031Z,99.90
2018-09-19T03:21:28.499Z,99.90
2018-09-19T03:22:32.731Z,99.90
2018-09-19T03:23:36.889Z,99.90
2018-09-19T03:24:41.418Z,99.90
2018-09-19T03:25:46.003Z,99.90
2018-09-19T03:26:50.164Z,99.90
2018-09-19T03:27:54.542Z,99.90
2018-09-19T03:28:58.647Z,99.90
2018-09-19T03:30:02.948Z,99.90
2018-09-19T03:31:07.467Z,99.90
2018-09-19T03:32:11.768Z,99.90
2018-09-19T03:33:16.092Z,99.90
2018-09-19T03:34:20.243Z,99.90
2018-09-19T03:35:24.559Z,99.90
2018-09-19T03:36:28.689Z,99.90
2018-09-19T03:37:32.919Z,99.90
2018-09-19T03:38:37.206Z,99.90
2018-09-19T03:39:41.346Z,99.90
2018-09-19T03:40:45.833Z,99.90
2018-09-19T03:41:50.109Z,99.90
2018-09-19T03:42:54.310Z,99.90
2018-09-19T03:43:58.770Z,99.90
2018-09-19T03:45:03.165Z,99.90
2018-09-19T03:46:07.473Z,99.90
2018-09-19T03:47:11.753Z,99.90
2018-09-19T03:48:16.156Z,99.90
2018-09-19T03:49:20.485Z,99.90
2018-09-19T03:50:24.762Z,99.90
2018-09-19T03:51:28.949Z,99.90
2018-09-19T03:52:33.415Z,99.90
2018-09-19T03:53:37.433Z,99.90
2018-09-19T03:54:41.729Z,99.90
2018-09-19T03:55:45.946Z,99.90
2018-09-19T03:56:50.181Z,99.90
2018-09-19T03:57:54.759Z,99.90
2018-09-19T03:58:59.062Z,99.90
2018-09-19T04:00:03.373Z,99.90
2018-09-19T04:01:07.778Z,99.90
2018-09-19T04:02:11.868Z,99.90
2018-09-19T04:03:16.009Z,99.90
2018-09-19T04:04:20.349Z,99.90
2018-09-19T04:05:25.767Z,99.90
2018-09-19T04:06:30.035Z,99.90
2018-09-19T04:07:34.383Z,99.90
2018-09-19T04:08:38.869Z,99.90
2018-09-19T04:09:43.191Z,99.90
2018-09-19T04:10:47.355Z,99.90
2018-09-19T04:11:51.563Z,99.90
2018-09-19T04:12:55.738Z,99.90
2018-09-19T04:13:59.967Z,99.90
2018-09-19T04:15:04.191Z,99.90
2018-09-19T04:16:08.473Z,99.90
2018-09-19T04:17:12.908Z,99.90
2018-09-19T04:18:17.298Z,99.90
2018-09-19T04:19:21.540Z,99.90
2018-09-19T04:20:25.848Z,99.90
2018-09-19T04:21:29.970Z,99.90
2018-09-19T04:22:34.554Z,99.90
2018-09-19T04:23:38.942Z,99.90
2018-09-19T04:24:43.372Z,99.90
2018-09-19T04:25:47.505Z,99.90
2018-09-19T04:26:51.609Z,99.90
2018-09-19T04:27:55.954Z,99.90
2018-09-19T04:29:00.414Z,99.90
2018-09-19T04:30:04.877Z,99.90
2018-09-19T04:31:09.175Z,99.90
2018-09-19T04:32:13.590Z,99.90
2018-09-19T04:33:17.779Z,99.90
2018-09-19T04:34:22.160Z,99.90
2018-09-19T04:35:26.574Z,99.90
2018-09-19T04:36:30.870Z,99.90
2018-09-19T04:37:35.083Z,99.90
2018-09-19T04:38:39.550Z,99.90
2018-09-19T04:39:43.890Z,99.90
2018-09-19T04:40:48.269Z,99.90
2018-09-19T04:41:52.613Z,99.90
2018-09-19T04:42:56.821Z,99.90
2018-09-19T04:44:01.280Z,99.90
2018-09-19T04:45:05.608Z,99.90
2018-09-19T04:46:10.198Z,99.90
2018-09-19T04:47:14.648Z,99.90
2018-09-19T04:48:19.279Z,99.90
2018-09-19T04:49:23.695Z,99.90
2018-09-19T04:50:28.001Z,99.90
2018-09-19T04:51:32.511Z,99.90
2018-09-19T04:52:36.716Z,99.90
2018-09-19T04:53:40.865Z,99.90
2018-09-19T04:54:45.327Z,99.90
2018-09-19T04:55:49.407Z,99.90
2018-09-19T04:56:53.575Z,99.90
2018-09-19T04:57:57.876Z,99.90
2018-09-19T04:59:02.439Z,99.90
2018-09-19T05:00:06.949Z,99.90
2018-09-19T05:01:11.175Z,99.90
2018-09-19T05:02:15.500Z,99.90
2018-09-19T05:03:19.841Z,99.90
2018-09-19T05:04:23.985Z,99.90
2018-09-19T05:05:28.240Z,99.90
2018-09-19T05:06:32.562Z,99.90
2018-09-19T05:07:36.673Z,99.90
2018-09-19T05:08:41.233Z,99.90
2018-09-19T05:09:45.480Z,99.90
2018-09-19T05:10:50.007Z,99.90
2018-09-19T05:11:54.438Z,99.90
2018-09-19T05:12:59.099Z,99.90
2018-09-19T05:14:03.489Z,99.90
2018-09-19T05:15:07.864Z,99.90
2018-09-19T05:16:12.062Z,99.90
2018-09-19T05:17:16.575Z,99.90
2018-09-19T05:18:20.910Z,99.90
2018-09-19T05:19:25.063Z,99.90
2018-09-19T05:20:29.296Z,99.90
2018-09-19T05:21:33.641Z,99.90
2018-09-19T05:22:38.002Z,99.90
2018-09-19T05:23:42.266Z,99.90
2018-09-19T05:24:46.731Z,99.90
2018-09-19T05:25:51.082Z,99.90
2018-09-19T05:26:55.228Z,99.90
2018-09-19T05:27:59.595Z,99.90
2018-09-19T05:29:03.894Z,99.90
2018-09-19T05:30:08.215Z,99.90
2018-09-19T05:31:12.447Z,99.90
2018-09-19T05:32:16.780Z,99.90
2018-09-19T05:33:21.242Z,99.90
2018-09-19T05:34:25.645Z,99.90
2018-09-19T05:35:29.956Z,99.90
2018-09-19T05:36:34.162Z,99.90
2018-09-19T05:37:38.518Z,99.90
2018-09-19T05:38:42.975Z,99.90
2018-09-19T05:39:47.527Z,99.90
2018-09-19T05:40:51.867Z,99.90
2018-09-19T05:41:56.145Z,99.90
2018-09-19T05:43:00.443Z,99.90
2018-09-19T05:44:04.733Z,99.90
2018-09-19T05:45:09.286Z,99.90
2018-09-19T05:46:13.621Z,99.90
2018-09-19T05:47:17.877Z,99.90
2018-09-19T05:48:22.175Z,99.90
2018-09-19T05:49:26.370Z,99.90
2018-09-19T05:50:30.779Z,99.90
2018-09-19T05:51:35.097Z,99.90
2018-09-19T05:52:39.367Z,99.90
2018-09-19T05:53:43.619Z,99.90
2018-09-19T05:54:47.997Z,99.90
2018-09-19T05:55:52.404Z,99.90
2018-09-19T05:56:56.713Z,99.90
2018-09-19T05:58:00.885Z,99.90
2018-09-19T05:59:05.076Z,99.90
2018-09-19T06:00:09.328Z,99.90
2018-09-19T06:01:13.755Z,99.90
2018-09-19T06:02:17.958Z,99.90
2018-09-19T06:03:22.784Z,99.90
2018-09-19T06:04:27.343Z,99.90
2018-09-19T06:05:31.768Z,99.90
2018-09-19T06:06:35.958Z,99.90
2018-09-19T06:07:40.092Z,99.90
2018-09-19T06:08:44.442Z,99.90
2018-09-19T06:09:49.255Z,99.90
2018-09-19T06:10:53.701Z,99.90
2018-09-19T06:11:58.002Z,99.90
2018-09-19T06:13:02.423Z,99.90
2018-09-19T06:14:07.053Z,99.90
2018-09-19T06:15:11.131Z,99.90
2018-09-19T06:16:15.317Z,99.90
2018-09-19T06:17:19.656Z,99.90
2018-09-19T06:18:24.012Z,99.90
2018-09-19T06:19:28.577Z,99.90
2018-09-19T06:20:32.780Z,99.90
2018-09-19T06:21:37.077Z,99.90
2018-09-19T06:22:41.535Z,99.90
2018-09-19T06:23:46.002Z,99.90
2018-09-19T06:24:50.206Z,99.90
2018-09-19T06:25:54.414Z,99.90
2018-09-19T06:26:58.814Z,99.90
2018-09-19T06:28:02.970Z,99.90
2018-09-19T06:29:07.348Z,99.90
2018-09-19T06:30:11.632Z,99.90
2018-09-19T06:31:15.925Z,99.90
2018-09-19T06:32:20.566Z,99.90
2018-09-19T06:33:24.734Z,99.90
2018-09-19T06:34:29.024Z,99.90
2018-09-19T06:35:33.355Z,99.90
2018-09-19T06:36:37.658Z,99.90
2018-09-19T06:37:42.226Z,99.90
2018-09-19T06:38:46.411Z,99.90
2018-09-19T06:39:50.863Z,99.90
2018-09-19T06:40:55.160Z,99.90
2018-09-19T06:41:59.300Z,99.90
2018-09-19T06:43:04.109Z,99.90
2018-09-19T06:44:08.472Z,99.90
2018-09-19T06:45:12.875Z,99.90
2018-09-19T06:46:17.009Z,99.90
2018-09-19T06:47:21.641Z,99.90
2018-09-19T06:48:25.842Z,99.90
2018-09-19T06:49:30.030Z,99.90
2018-09-19T06:50:34.221Z,99.90
2018-09-19T06:51:38.435Z,99.90
2018-09-19T06:52:42.709Z,99.90
2018-09-19T06:53:46.944Z,99.90
2018-09-19T06:54:51.207Z,99.90
2018-09-19T06:55:55.933Z,99.90
2018-09-19T06:57:00.366Z,99.90
2018-09-19T06:58:04.467Z,99.90
2018-09-19T06:59:08.846Z,99.90
2018-09-19T07:00:13.063Z,99.90
2018-09-19T07:01:17.405Z,99.90
2018-09-19T07:02:21.761Z,99.90
2018-09-19T07:03:26.084Z,99.90
2018-09-19T07:04:30.335Z,99.90
2018-09-19T07:05:37.795Z,99.90
2018-09-19T07:06:42.247Z,99.90
2018-09-19T07:07:46.337Z,99.90
2018-09-19T07:08:50.622Z,99.90
2018-09-19T07:09:54.950Z,99.90
2018-09-19T07:10:59.307Z,99.90
2018-09-19T07:12:03.819Z,99.90
2018-09-19T07:13:07.946Z,99.90
2018-09-19T07:14:12.237Z,99.90
2018-09-19T07:15:16.708Z,99.90
2018-09-19T07:16:21.214Z,99.90
2018-09-19T07:17:25.769Z,99.90
2018-09-19T07:18:30.134Z,99.90
2018-09-19T07:19:34.509Z,99.90
2018-09-19T07:20:38.751Z,99.90
2018-09-19T07:21:42.954Z,99.90
2018-09-19T07:22:47.622Z,99.90
2018-09-19T07:23:51.834Z,99.90
2018-09-19T07:24:56.245Z,99.90
2018-09-19T07:26:00.404Z,99.90
2018-09-19T07:27:04.755Z,99.90
2018-09-19T07:28:08.893Z,99.90
2018-09-19T07:29:13.096Z,99.90
2018-09-19T07:30:17.430Z,99.90
2018-09-19T07:31:21.912Z,99.90
2018-09-19T07:32:26.123Z,99.90
2018-09-19T07:33:30.534Z,99.90
2018-09-19T07:34:34.944Z,99.90
2018-09-19T07:35:39.187Z,99.90
2018-09-19T07:36:43.414Z,99.90
2018-09-19T07:37:47.770Z,99.90
2018-09-19T07:38:52.279Z,99.90
2018-09-19T07:39:56.610Z,99.90
2018-09-19T07:41:00.852Z,99.90
2018-09-19T07:42:05.155Z,99.90
2018-09-19T07:43:09.807Z,99.90
2018-09-19T07:44:13.974Z,99.90
2018-09-19T07:45:18.134Z,99.90
2018-09-19T07:46:22.619Z,99.90
2018-09-19T07:47:26.905Z,99.90
2018-09-19T07:48:31.155Z,99.90
2018-09-19T07:49:35.188Z,99.90
2018-09-19T07:50:39.595Z,99.90
2018-09-19T07:51:43.936Z,99.90
2018-09-19T07:52:48.253Z,99.90
2018-09-19T07:53:52.605Z,99.90
2018-09-19T07:54:56.769Z,99.90
2018-09-19T07:56:01.575Z,99.90
2018-09-19T07:57:06.085Z,99.90
2018-09-19T07:58:10.438Z,99.90
2018-09-19T07:59:14.799Z,99.90
2018-09-19T08:00:19.300Z,99.90
2018-09-19T08:01:23.389Z,99.90
2018-09-19T08:02:27.522Z,99.90
2018-09-19T08:03:31.639Z,99.90
2018-09-19T08:04:35.847Z,99.90
2018-09-19T08:05:40.275Z,99.90
2018-09-19T08:06:44.938Z,99.90
2018-09-19T08:07:49.117Z,99.90
2018-09-19T08:08:53.652Z,99.90
2018-09-19T08:09:57.824Z,99.90
2018-09-19T08:11:02.089Z,99.90
2018-09-19T08:12:06.356Z,99.90
2018-09-19T08:13:10.741Z,99.90
2018-09-19T08:14:15.121Z,99.90
2018-09-19T08:15:19.597Z,99.90
2018-09-19T08:16:24.307Z,99.90
2018-09-19T08:17:28.578Z,99.90
2018-09-19T08:18:32.776Z,99.90
2018-09-19T08:19:37.675Z,99.90
2018-09-19T08:20:41.901Z,99.90
2018-09-19T08:21:46.539Z,99.90
2018-09-19T08:22:50.970Z,99.90
2018-09-19T08:23:55.595Z,99.90
2018-09-19T08:24:59.985Z,99.90
2018-09-19T08:26:04.314Z,99.90
2018-09-19T08:27:08.690Z,99.90
2018-09-19T08:28:13.105Z,99.90
2018-09-19T08:29:17.349Z,99.90
2018-09-19T08:30:21.630Z,99.90
2018-09-19T08:31:26.071Z,99.90
2018-09-19T08:32:30.387Z,99.90
2018-09-19T08:33:34.488Z,99.90
2018-09-19T08:34:38.629Z,99.90
2018-09-19T08:35:43.015Z,99.90
2018-09-19T08:36:47.611Z,99.90
2018-09-19T08:37:51.924Z,99.90
2018-09-19T08:38:56.011Z,99.90
2018-09-19T08:40:00.265Z,99.90
2018-09-19T08:41:04.750Z,99.90
2018-09-19T08:42:08.848Z,99.90
2018-09-19T08:43:12.993Z,99.90
2018-09-19T08:44:17.299Z,99.90
2018-09-19T08:45:21.474Z,99.90
2018-09-19T08:46:25.611Z,99.90
2018-09-19T08:47:29.943Z,99.90
2018-09-19T08:48:34.165Z,99.90
2018-09-19T08:49:38.341Z,99.90
2018-09-19T08:50:42.896Z,99.90
2018-09-19T08:51:47.518Z,99.90
2018-09-19T08:52:51.617Z,99.90
2018-09-19T08:53:56.166Z,99.90
2018-09-19T08:55:00.561Z,99.90
2018-09-19T08:56:04.903Z,99.90
2018-09-19T08:57:09.016Z,99.90
2018-09-19T08:58:13.377Z,99.90
2018-09-19T08:59:17.426Z,99.90
2018-09-19T09:00:21.720Z,99.80
2018-09-19T09:01:25.930Z,99.90
2018-09-19T09:02:30.224Z,99.90
2018-09-19T09:03:34.666Z,99.90
2018-09-19T09:04:39.045Z,99.70
2018-09-19T09:05:43.415Z,99.40
2018-09-19T09:06:47.687Z,99.20
2018-09-19T09:07:51.928Z,99.20
2018-09-19T09:08:55.997Z,99.30
2018-09-19T09:10:00.213Z,99.20
2018-09-19T09:11:04.421Z,98.90
2018-09-19T09:12:09.253Z,98.90
2018-09-19T09:13:13.825Z,99.00
2018-09-19T09:14:18.236Z,98.90
2018-09-19T09:15:22.388Z,99.00
2018-09-19T09:16:26.677Z,98.70
2018-09-19T09:17:31.141Z,98.60
2018-09-19T09:18:35.775Z,98.60
2018-09-19T09:19:40.139Z,98.70
2018-09-19T09:20:44.390Z,98.50
2018-09-19T09:21:48.505Z,98.60
2018-09-19T09:22:53.019Z,98.00
2018-09-19T09:23:57.262Z,98.00
2018-09-19T09:25:01.964Z,97.80
2018-09-19T09:26:06.244Z,97.00
2018-09-19T09:27:10.673Z,97.00
2018-09-19T09:28:15.085Z,97.10
2018-09-19T09:29:19.518Z,97.00
2018-09-19T09:30:23.911Z,97.10
2018-09-19T09:31:28.154Z,96.80
2018-09-19T09:32:32.508Z,96.80
2018-09-19T09:33:37.111Z,96.80
2018-09-19T09:34:41.517Z,96.80
2018-09-19T09:35:45.908Z,96.80
2018-09-19T09:36:50.430Z,97.00
2018-09-19T09:37:54.728Z,96.50
2018-09-19T09:38:59.158Z,96.80
2018-09-19T09:40:03.489Z,96.90
2018-09-19T09:41:07.778Z,96.90
2018-09-19T09:42:11.884Z,96.80
2018-09-19T09:43:16.217Z,96.70
2018-09-19T09:44:20.314Z,96.70
2018-09-19T09:45:24.492Z,96.50
2018-09-19T09:46:29.266Z,96.10
2018-09-19T09:47:33.980Z,96.40
2018-09-19T09:48:38.082Z,96.10
2018-09-19T09:49:42.266Z,96.30
2018-09-19T09:50:46.463Z,96.50
2018-09-19T09:51:50.741Z,96.50
2018-09-19T09:52:55.114Z,96.60
2018-09-19T09:53:59.706Z,96.40
2018-09-19T09:55:04.248Z,96.60
2018-09-19T09:56:08.445Z,96.90
2018-09-19T09:57:12.797Z,96.90
2018-09-19T09:58:17.039Z,97.10
2018-09-19T09:59:21.270Z,97.30
2018-09-19T10:00:30.941Z,96.80
2018-09-19T10:01:35.245Z,96.70
2018-09-19T10:02:42.551Z,96.60
2018-09-19T10:03:46.858Z,96.70
2018-09-19T10:04:51.676Z,96.80
2018-09-19T10:05:56.487Z,96.80
2018-09-19T10:07:00.857Z,96.90
2018-09-19T10:08:05.410Z,96.80
2018-09-19T10:09:10.032Z,96.80
2018-09-19T10:10:14.245Z,96.70
2018-09-19T10:11:18.501Z,96.70
2018-09-19T10:12:22.576Z,96.60
2018-09-19T10:13:26.818Z,96.50
2018-09-19T10:14:31.163Z,96.80
2018-09-19T10:15:35.713Z,96.90
2018-09-19T10:16:40.033Z,97.00
2018-09-19T10:17:44.641Z,97.00
2018-09-19T10:18:48.853Z,97.10
2018-09-19T10:19:53.307Z,97.10
2018-09-19T10:20:57.722Z,97.20
2018-09-19T10:22:01.897Z,97.20
2018-09-19T10:23:06.235Z,97.30
2018-09-19T10:24:10.726Z,97.20
2018-09-19T10:25:15.124Z,97.10
2018-09-19T10:26:19.473Z,97.10
2018-09-19T10:27:23.790Z,97.00
2018-09-19T10:28:28.016Z,97.40
2018-09-19T10:29:32.368Z,97.60
2018-09-19T10:30:36.444Z,97.80
2018-09-19T10:31:41.451Z,98.00
2018-09-19T10:32:45.903Z,98.10
2018-09-19T10:33:50.197Z,98.40
2018-09-19T10:34:54.495Z,98.20
2018-09-19T10:35:58.674Z,98.10
2018-09-19T10:37:02.987Z,98.00
2018-09-19T10:38:07.361Z,98.20
2018-09-19T10:39:11.665Z,98.40
2018-09-19T10:40:15.864Z,98.60
2018-09-19T10:41:20.108Z,98.50
2018-09-19T10:42:24.314Z,98.50
2018-09-19T10:43:28.729Z,98.50
2018-09-19T10:44:33.165Z,98.60
2018-09-19T10:45:37.619Z,98.60
2018-09-19T10:46:41.794Z,98.80
2018-09-19T10:47:45.994Z,98.80
2018-09-19T10:48:50.345Z,99.10
2018-09-19T10:49:54.556Z,98.80
2018-09-19T10:50:58.835Z,99.00
2018-09-19T10:52:03.073Z,99.20
2018-09-19T10:53:07.396Z,99.20
2018-09-19T10:54:12.042Z,99.20
2018-09-19T10:55:16.443Z,99.20
2018-09-19T10:56:20.757Z,99.00
2018-09-19T10:57:25.272Z,99.20
2018-09-19T10:58:29.731Z,99.20
2018-09-19T10:59:34.460Z,99.40
2018-09-19T11:00:38.644Z,99.40
2018-09-19T11:01:43.015Z,99.30
2018-09-19T11:02:47.424Z,99.40
2018-09-19T11:03:51.558Z,99.50
2018-09-19T11:04:55.831Z,99.60
2018-09-19T11:06:00.093Z,99.60
2018-09-19T11:07:04.496Z,99.30
2018-09-19T11:08:08.726Z,99.20
2018-09-19T11:09:13.152Z,99.20
2018-09-19T11:10:17.556Z,99.10
2018-09-19T11:11:21.979Z,99.30
2018-09-19T11:12:26.157Z,99.30
2018-09-19T11:13:30.433Z,99.40
2018-09-19T11:14:34.779Z,99.20
2018-09-19T11:15:39.019Z,99.50
2018-09-19T11:16:43.689Z,99.40
2018-09-19T11:17:48.085Z,99.80
2018-09-19T11:18:52.313Z,99.20
2018-09-19T11:19:56.878Z,99.30
2018-09-19T11:21:01.311Z,99.40
2018-09-19T11:22:05.878Z,99.70
2018-09-19T11:23:10.067Z,99.50
2018-09-19T11:24:14.766Z,99.40
2018-09-19T11:25:19.371Z,99.30
2018-09-19T11:26:23.696Z,99.20
2018-09-19T11:27:28.110Z,99.30
2018-09-19T11:28:32.449Z,99.40
2018-09-19T11:29:36.813Z,99.20
2018-09-19T11:30:41.506Z,99.30
2018-09-19T11:31:45.894Z,99.00
2018-09-19T11:32:50.358Z,99.30
2018-09-19T11:33:54.441Z,99.40
2018-09-19T11:34:58.913Z,99.30
2018-09-19T11:36:02.983Z,99.20
2018-09-19T11:37:07.668Z,98.90
2018-09-19T11:38:11.952Z,98.70
2018-09-19T11:39:16.284Z,98.60
2018-09-19T11:40:20.660Z,98.30
2018-09-19T11:41:25.012Z,98.30
2018-09-19T11:42:29.465Z,98.30
2018-09-19T11:43:33.893Z,98.40
2018-09-19T11:44:38.302Z,98.30
2018-09-19T11:45:42.727Z,98.20
2018-09-19T11:46:47.350Z,98.10
2018-09-19T11:47:51.626Z,98.10
2018-09-19T11:48:55.847Z,98.20
2018-09-19T11:50:00.175Z,98.10
2018-09-19T11:51:04.476Z,98.10
2018-09-19T11:52:08.891Z,98.20
2018-09-19T11:53:18.994Z,98.40
2018-09-19T11:54:23.264Z,98.50
2018-09-19T11:55:27.531Z,98.40
2018-09-19T11:56:31.803Z,98.20
2018-09-19T11:57:36.359Z,98.20
2018-09-19T11:58:40.879Z,98.30
2018-09-19T11:59:45.081Z,98.00
2018-09-19T12:00:49.438Z,98.10
2018-09-19T12:01:53.833Z,98.00
2018-09-19T12:02:58.100Z,97.50
2018-09-19T12:04:02.665Z,97.60
2018-09-19T12:05:06.970Z,97.80
2018-09-19T12:06:11.376Z,97.60
2018-09-19T12:07:15.526Z,97.60
2018-09-19T12:08:20.633Z,97.30
2018-09-19T12:09:25.124Z,97.10
2018-09-19T12:10:29.337Z,97.20
2018-09-19T12:11:33.433Z,97.10
2018-09-19T12:12:37.826Z,97.20
2018-09-19T12:13:42.089Z,97.00
2018-09-19T12:14:46.380Z,97.00
2018-09-19T12:15:50.648Z,96.90
2018-09-19T12:16:55.226Z,96.90
2018-09-19T12:17:59.598Z,96.60
2018-09-19T12:19:04.005Z,96.40
2018-09-19T12:20:08.399Z,96.10
2018-09-19T12:21:12.616Z,96.10
2018-09-19T12:22:16.910Z,96.20
2018-09-19T12:23:21.292Z,96.30
2018-09-19T12:24:25.684Z,96.50
2018-09-19T12:25:29.957Z,96.20
2018-09-19T12:26:34.478Z,96.20
2018-09-19T12:27:38.595Z,96.00
2018-09-19T12:28:43.224Z,96.10
2018-09-19T12:29:47.557Z,95.80
2018-09-19T12:30:51.736Z,95.50
2018-09-19T12:31:56.079Z,95.10
2018-09-19T12:33:00.459Z,94.70
2018-09-19T12:34:04.818Z,94.50
2018-09-19T12:35:08.998Z,94.60
2018-09-19T12:36:13.605Z,94.20
2018-09-19T12:37:17.744Z,94.20
2018-09-19T12:38:21.967Z,94.20
2018-09-19T12:39:26.129Z,94.40
2018-09-19T12:40:30.358Z,94.20
2018-09-19T12:41:34.537Z,94.20
2018-09-19T12:42:39.211Z,94.00
2018-09-19T12:43:43.601Z,93.90
2018-09-19T12:44:47.846Z,94.00
2018-09-19T12:45:52.024Z,94.10
2018-09-19T12:46:56.226Z,93.80
2018-09-19T12:48:00.777Z,93.80
2018-09-19T12:49:05.218Z,93.80
2018-09-19T12:50:09.490Z,94.10
2018-09-19T12:51:13.712Z,94.10
2018-09-19T12:52:17.849Z,93.90
2018-09-19T12:53:24.096Z,93.50
2018-09-19T12:54:28.297Z,93.50
2018-09-19T12:55:32.611Z,93.40
2018-09-19T12:56:36.877Z,93.50
2018-09-19T12:57:41.128Z,93.10
2018-09-19T12:58:45.306Z,92.80
2018-09-19T12:59:49.499Z,92.90
2018-09-19T13:00:54.148Z,92.50
2018-09-19T13:01:58.369Z,92.50
2018-09-19T13:03:04.025Z,92.40
2018-09-19T13:04:08.330Z,92.30
2018-09-19T13:05:12.712Z,92.20
2018-09-19T13:06:16.993Z,91.70
2018-09-19T13:07:21.590Z,91.70
2018-09-19T13:08:25.873Z,91.50
2018-09-19T13:09:30.162Z,91.10
2018-09-19T13:10:34.593Z,91.00
2018-09-19T13:11:38.903Z,90.80
2018-09-19T13:12:43.217Z,91.00
2018-09-19T13:13:47.602Z,90.70
2018-09-19T13:14:51.890Z,90.40
2018-09-19T13:15:56.166Z,90.10
2018-09-19T13:17:00.376Z,89.80
2018-09-19T13:18:04.775Z,89.20
2018-09-19T13:19:09.308Z,89.50
2018-09-19T13:20:13.630Z,89.50
2018-09-19T13:21:18.062Z,89.00
2018-09-19T13:22:22.260Z,88.80
2018-09-19T13:23:26.569Z,89.00
2018-09-19T13:24:31.129Z,89.00
2018-09-19T13:25:35.529Z,89.80
2018-09-19T13:26:40.103Z,90.00
2018-09-19T13:27:44.374Z,89.50
2018-09-19T13:28:48.516Z,89.10
2018-09-19T13:29:52.976Z,88.90
2018-09-19T13:30:57.211Z,88.70
2018-09-19T13:32:01.670Z,88.90
2018-09-19T13:33:06.272Z,89.10
2018-09-19T13:34:10.685Z,88.70
2018-09-19T13:35:15.440Z,88.10
2018-09-19T13:36:19.899Z,87.50
2018-09-19T13:37:24.297Z,87.30
2018-09-19T13:38:28.622Z,86.60
2018-09-19T13:39:32.804Z,86.10
2018-09-19T13:40:36.990Z,86.80
2018-09-19T13:41:41.513Z,86.40
2018-09-19T13:42:45.715Z,85.40
2018-09-19T13:43:49.948Z,85.00
2018-09-19T13:44:54.287Z,84.70
2018-09-19T13:45:58.666Z,83.60
2018-09-19T13:47:02.981Z,82.90
2018-09-19T13:48:07.674Z,83.20
2018-09-19T13:49:23.330Z,83.30